DAL1714 KLAX-KSEA
Flight info
| Callsign | DAL1714 |
|---|---|
| Flight time | 2h 6m |
| Altitude | 32000 |
| Route | LADYJ4 CSTRO SHIMR LKV HAWKZ8 |
| Aircraft | B738/M-DE2E3FGHILORWXY/LB1 |
Departure
| Time | 2026-04-21 16:44 |
|---|---|
| Airport | Los Angeles International Airport (KLAX) |
Arrival
| Time | 2026-04-21 18:51 |
|---|---|
| Airport | Seattle–Tacoma International Airport (KSEA) |
| Time | Latitude | Longitude | Altitude | Speed | Heading |
|---|---|---|---|---|---|
| 2026-04-21 16:31 | 33.94711 | -118.40328 | 125 ft | 0 kts | 234° |
| 2026-04-21 16:35 | 33.94718 | -118.40317 | 119 ft | 3 kts | 236° |
| 2026-04-21 16:35 | 33.94729 | -118.40296 | 125 ft | 3 kts | 245° |
| 2026-04-21 16:36 | 33.94735 | -118.40274 | 125 ft | 3 kts | 271° |
| 2026-04-21 16:36 | 33.94734 | -118.40260 | 125 ft | 2 kts | 335° |
| 2026-04-21 16:36 | 33.94730 | -118.40257 | 125 ft | 0 kts | 352° |
| 2026-04-21 16:40 | 33.94744 | -118.40260 | 121 ft | 5 kts | 352° |
| 2026-04-21 16:40 | 33.94798 | -118.40270 | 125 ft | 9 kts | 343° |
| 2026-04-21 16:40 | 33.94860 | -118.40295 | 125 ft | 9 kts | 348° |
| 2026-04-21 16:40 | 33.94902 | -118.40249 | 125 ft | 9 kts | 78° |
| 2026-04-21 16:41 | 33.94906 | -118.40199 | 123 ft | 9 kts | 86° |
| 2026-04-21 16:41 | 33.94916 | -118.40102 | 123 ft | 9 kts | 83° |
| 2026-04-21 16:41 | 33.94923 | -118.40032 | 123 ft | 8 kts | 83° |
| 2026-04-21 16:41 | 33.94932 | -118.39965 | 121 ft | 8 kts | 72° |
| 2026-04-21 16:42 | 33.94949 | -118.39929 | 123 ft | 4 kts | 45° |
| 2026-04-21 16:42 | 33.94953 | -118.39925 | 125 ft | 0 kts | 40° |
| 2026-04-21 16:42 | 33.94955 | -118.39924 | 125 ft | 1 kts | 37° |
| 2026-04-21 16:42 | 33.94979 | -118.39915 | 121 ft | 6 kts | 8° |
| 2026-04-21 16:43 | 33.95032 | -118.39913 | 121 ft | 7 kts | 356° |
| 2026-04-21 16:43 | 33.95044 | -118.39931 | 125 ft | 0 kts | 264° |
| 2026-04-21 16:43 | 33.95043 | -118.39937 | 125 ft | 3 kts | 264° |
| 2026-04-21 16:43 | 33.95035 | -118.40034 | 122 ft | 32 kts | 262° |
| 2026-04-21 16:44 | 33.94977 | -118.40585 | 124 ft | 99 kts | 263° |
| 2026-04-21 16:44 | 33.94867 | -118.41654 | 126 ft | 156 kts | 262° |
| 2026-04-21 16:44 | 33.94719 | -118.43101 | 355 ft | 184 kts | 262° |
| 2026-04-21 16:44 | 33.94565 | -118.44674 | 1022 ft | 194 kts | 262° |
| 2026-04-21 16:45 | 33.94397 | -118.46331 | 1610 ft | 205 kts | 262° |
| 2026-04-21 16:45 | 33.94292 | -118.48054 | 2266 ft | 207 kts | 267° |
| 2026-04-21 16:45 | 33.94241 | -118.49809 | 2898 ft | 208 kts | 268° |
| 2026-04-21 16:45 | 33.94187 | -118.51557 | 3463 ft | 213 kts | 265° |
| 2026-04-21 16:46 | 33.94051 | -118.53373 | 3810 ft | 229 kts | 264° |
| 2026-04-21 16:46 | 33.93884 | -118.55377 | 4001 ft | 249 kts | 264° |
| 2026-04-21 16:46 | 33.93709 | -118.57535 | 4352 ft | 262 kts | 264° |
| 2026-04-21 16:46 | 33.93534 | -118.59728 | 4922 ft | 266 kts | 264° |
| 2026-04-21 16:47 | 33.93565 | -118.61938 | 5502 ft | 269 kts | 284° |
| 2026-04-21 16:47 | 33.94444 | -118.63929 | 6118 ft | 272 kts | 311° |
| 2026-04-21 16:47 | 33.95941 | -118.65345 | 6745 ft | 275 kts | 327° |
| 2026-04-21 16:47 | 33.97574 | -118.66550 | 7320 ft | 280 kts | 327° |
| 2026-04-21 16:48 | 33.99352 | -118.67552 | 7874 ft | 285 kts | 346° |
| 2026-04-21 16:48 | 34.01343 | -118.67667 | 8406 ft | 291 kts | 2° |
| 2026-04-21 16:48 | 34.03382 | -118.67513 | 9007 ft | 296 kts | 2° |
| 2026-04-21 16:48 | 34.05461 | -118.67359 | 9615 ft | 300 kts | 2° |
| 2026-04-21 16:49 | 34.07540 | -118.67214 | 10179 ft | 307 kts | 2° |
| 2026-04-21 16:49 | 34.09752 | -118.66869 | 10362 ft | 329 kts | 9° |
| 2026-04-21 16:49 | 34.12077 | -118.66293 | 10585 ft | 348 kts | 11° |
| 2026-04-21 16:49 | 34.14451 | -118.65666 | 10982 ft | 358 kts | 11° |
| 2026-04-21 16:50 | 34.16910 | -118.65038 | 11534 ft | 363 kts | 10° |
| 2026-04-21 16:50 | 34.19418 | -118.64427 | 12058 ft | 369 kts | 10° |
| 2026-04-21 16:50 | 34.21949 | -118.63826 | 12603 ft | 375 kts | 10° |
| 2026-04-21 16:50 | 34.24542 | -118.63350 | 13243 ft | 376 kts | 358° |
| 2026-04-21 16:51 | 34.27128 | -118.63737 | 13873 ft | 375 kts | 345° |
| 2026-04-21 16:51 | 34.29708 | -118.64370 | 14499 ft | 379 kts | 345° |
| 2026-04-21 16:51 | 34.32328 | -118.65017 | 15062 ft | 385 kts | 345° |
| 2026-04-21 16:51 | 34.34940 | -118.65644 | 15700 ft | 387 kts | 345° |
| 2026-04-21 16:52 | 34.37606 | -118.66263 | 16256 ft | 389 kts | 345° |
| 2026-04-21 16:52 | 34.40262 | -118.66872 | 16743 ft | 396 kts | 345° |
| 2026-04-21 16:52 | 34.42106 | -118.67293 | 17117 ft | 399 kts | 345° |
| 2026-04-21 16:52 | 34.45771 | -118.68069 | 17895 ft | 404 kts | 346° |
| 2026-04-21 16:53 | 34.48540 | -118.68603 | 18455 ft | 408 kts | 347° |
| 2026-04-21 16:53 | 34.51367 | -118.69137 | 19039 ft | 410 kts | 347° |
| 2026-04-21 16:53 | 34.54178 | -118.69672 | 19564 ft | 414 kts | 346° |
| 2026-04-21 16:53 | 34.56081 | -118.70038 | 19899 ft | 417 kts | 346° |
| 2026-04-21 16:54 | 34.58969 | -118.70599 | 20439 ft | 420 kts | 346° |
| 2026-04-21 16:54 | 34.61852 | -118.71162 | 20948 ft | 423 kts | 346° |
| 2026-04-21 16:54 | 34.64790 | -118.71736 | 21468 ft | 426 kts | 346° |
| 2026-04-21 16:54 | 34.67714 | -118.72309 | 21855 ft | 431 kts | 346° |
| 2026-04-21 16:55 | 34.70693 | -118.72902 | 22381 ft | 431 kts | 344° |
| 2026-04-21 16:55 | 34.73492 | -118.74008 | 22792 ft | 423 kts | 326° |
| 2026-04-21 16:55 | 34.76057 | -118.75780 | 23277 ft | 422 kts | 323° |
| 2026-04-21 16:55 | 34.78580 | -118.77566 | 23682 ft | 425 kts | 323° |
| 2026-04-21 16:56 | 34.81166 | -118.79392 | 24078 ft | 428 kts | 323° |
| 2026-04-21 16:56 | 34.83749 | -118.81197 | 24478 ft | 431 kts | 323° |
| 2026-04-21 16:56 | 34.86376 | -118.83020 | 24851 ft | 434 kts | 323° |
| 2026-04-21 16:56 | 34.89018 | -118.84847 | 25267 ft | 436 kts | 324° |
| 2026-04-21 16:57 | 34.91651 | -118.86665 | 25583 ft | 439 kts | 324° |
| 2026-04-21 16:57 | 34.94308 | -118.88496 | 25971 ft | 440 kts | 324° |
| 2026-04-21 16:57 | 34.97001 | -118.90351 | 26353 ft | 442 kts | 324° |
| 2026-04-21 16:57 | 34.99680 | -118.92197 | 26679 ft | 444 kts | 324° |
| 2026-04-21 16:58 | 35.02370 | -118.94054 | 27025 ft | 447 kts | 324° |
| 2026-04-21 16:58 | 35.05074 | -118.95921 | 27351 ft | 449 kts | 323° |
| 2026-04-21 16:58 | 35.07814 | -118.97817 | 27668 ft | 452 kts | 323° |
| 2026-04-21 16:58 | 35.10539 | -118.99702 | 27968 ft | 454 kts | 323° |
| 2026-04-21 16:59 | 35.13315 | -119.01624 | 28300 ft | 456 kts | 323° |
| 2026-04-21 16:59 | 35.16065 | -119.03528 | 28643 ft | 457 kts | 323° |
| 2026-04-21 16:59 | 35.18819 | -119.05438 | 28971 ft | 458 kts | 323° |
| 2026-04-21 16:59 | 35.21615 | -119.07377 | 29328 ft | 458 kts | 323° |
| 2026-04-21 17:00 | 35.24369 | -119.09288 | 29725 ft | 457 kts | 323° |
| 2026-04-21 17:00 | 35.27143 | -119.11215 | 30089 ft | 456 kts | 323° |
| 2026-04-21 17:00 | 35.28984 | -119.12496 | 30348 ft | 455 kts | 323° |
| 2026-04-21 17:00 | 35.32645 | -119.15044 | 30876 ft | 453 kts | 323° |
| 2026-04-21 17:01 | 35.35354 | -119.16930 | 31272 ft | 451 kts | 323° |
| 2026-04-21 17:01 | 35.38091 | -119.18841 | 31568 ft | 451 kts | 322° |
| 2026-04-21 17:01 | 35.40812 | -119.20742 | 31878 ft | 451 kts | 322° |
| 2026-04-21 17:01 | 35.43531 | -119.22642 | 32012 ft | 454 kts | 323° |
| 2026-04-21 17:02 | 35.46484 | -119.24240 | 32002 ft | 470 kts | 337° |
| 2026-04-21 17:02 | 35.52830 | -119.26175 | 32017 ft | 469 kts | 340° |
| 2026-04-21 17:03 | 35.59219 | -119.27925 | 32030 ft | 468 kts | 340° |
| 2026-04-21 17:03 | 35.65526 | -119.29727 | 32031 ft | 467 kts | 340° |
| 2026-04-21 17:04 | 35.71861 | -119.31608 | 32041 ft | 467 kts | 339° |
| 2026-04-21 17:04 | 35.78175 | -119.33507 | 32052 ft | 468 kts | 339° |
| 2026-04-21 17:05 | 35.84526 | -119.35423 | 32047 ft | 470 kts | 339° |
| 2026-04-21 17:05 | 35.90892 | -119.37342 | 32047 ft | 471 kts | 339° |
| 2026-04-21 17:06 | 35.97236 | -119.39256 | 32048 ft | 473 kts | 339° |
| 2026-04-21 17:06 | 36.03638 | -119.41190 | 32041 ft | 475 kts | 339° |
| 2026-04-21 17:07 | 36.10075 | -119.43139 | 32054 ft | 476 kts | 339° |
| 2026-04-21 17:07 | 36.16526 | -119.45096 | 32062 ft | 477 kts | 339° |
| 2026-04-21 17:08 | 36.22996 | -119.47063 | 32056 ft | 479 kts | 339° |
| 2026-04-21 17:08 | 36.29440 | -119.49024 | 32056 ft | 479 kts | 339° |
| 2026-04-21 17:09 | 36.39145 | -119.51983 | 32051 ft | 479 kts | 340° |
| 2026-04-21 17:09 | 36.45656 | -119.53972 | 32056 ft | 479 kts | 339° |
| 2026-04-21 17:10 | 36.50943 | -119.55591 | 32052 ft | 478 kts | 340° |
| 2026-04-21 17:10 | 36.57401 | -119.57569 | 32045 ft | 477 kts | 340° |
| 2026-04-21 17:11 | 36.63861 | -119.59553 | 32057 ft | 477 kts | 340° |
| 2026-04-21 17:11 | 36.70290 | -119.61530 | 32056 ft | 476 kts | 340° |
| 2026-04-21 17:12 | 36.76689 | -119.63502 | 32052 ft | 475 kts | 340° |
| 2026-04-21 17:12 | 36.83108 | -119.65485 | 32055 ft | 475 kts | 340° |
| 2026-04-21 17:13 | 36.89530 | -119.67473 | 32056 ft | 475 kts | 340° |
| 2026-04-21 17:13 | 36.95939 | -119.69458 | 32056 ft | 476 kts | 340° |
| 2026-04-21 17:14 | 37.02397 | -119.71461 | 32052 ft | 478 kts | 340° |
| 2026-04-21 17:14 | 37.08860 | -119.73471 | 32044 ft | 479 kts | 340° |
| 2026-04-21 17:15 | 37.15313 | -119.75480 | 32039 ft | 480 kts | 340° |
| 2026-04-21 17:15 | 37.21820 | -119.77509 | 32042 ft | 482 kts | 340° |
| 2026-04-21 17:16 | 37.28330 | -119.79544 | 32039 ft | 483 kts | 340° |
| 2026-04-21 17:16 | 37.34878 | -119.81593 | 32037 ft | 484 kts | 340° |
| 2026-04-21 17:17 | 37.41402 | -119.83638 | 32029 ft | 484 kts | 340° |
| 2026-04-21 17:17 | 37.47922 | -119.85687 | 32024 ft | 484 kts | 341° |
| 2026-04-21 17:18 | 37.54458 | -119.87746 | 32028 ft | 484 kts | 340° |
| 2026-04-21 17:18 | 37.60999 | -119.89806 | 32023 ft | 485 kts | 341° |
| 2026-04-21 17:19 | 37.67543 | -119.91873 | 32023 ft | 484 kts | 341° |
| 2026-04-21 17:19 | 37.74079 | -119.93943 | 32030 ft | 485 kts | 341° |
| 2026-04-21 17:20 | 37.80625 | -119.96018 | 32027 ft | 484 kts | 340° |
| 2026-04-21 17:20 | 37.87145 | -119.98090 | 32040 ft | 484 kts | 341° |
| 2026-04-21 17:21 | 37.93713 | -120.00180 | 32028 ft | 484 kts | 341° |
| 2026-04-21 17:21 | 38.00215 | -120.02252 | 32034 ft | 485 kts | 341° |
| 2026-04-21 17:22 | 38.06757 | -120.04342 | 32032 ft | 485 kts | 341° |
| 2026-04-21 17:22 | 38.13297 | -120.06434 | 32024 ft | 485 kts | 341° |
| 2026-04-21 17:23 | 38.19863 | -120.08540 | 32022 ft | 484 kts | 340° |
| 2026-04-21 17:23 | 38.26505 | -120.10116 | 32014 ft | 491 kts | 351° |
| 2026-04-21 17:24 | 38.33327 | -120.10715 | 32008 ft | 492 kts | 353° |
| 2026-04-21 17:24 | 38.40172 | -120.11230 | 32004 ft | 493 kts | 353° |
| 2026-04-21 17:25 | 38.47008 | -120.11800 | 32006 ft | 493 kts | 353° |
| 2026-04-21 17:25 | 38.53866 | -120.12415 | 32006 ft | 494 kts | 352° |
| 2026-04-21 17:26 | 38.60727 | -120.13048 | 31995 ft | 494 kts | 352° |
| 2026-04-21 17:26 | 38.67061 | -120.13633 | 31984 ft | 495 kts | 353° |
| 2026-04-21 17:27 | 38.73916 | -120.14263 | 31995 ft | 495 kts | 353° |
| 2026-04-21 17:27 | 38.80801 | -120.14897 | 31990 ft | 496 kts | 353° |
| 2026-04-21 17:28 | 38.87693 | -120.15531 | 31972 ft | 497 kts | 353° |
| 2026-04-21 17:28 | 38.94611 | -120.16168 | 31980 ft | 498 kts | 353° |
| 2026-04-21 17:29 | 39.01488 | -120.16804 | 31972 ft | 498 kts | 353° |
| 2026-04-21 17:29 | 39.08438 | -120.17448 | 31976 ft | 499 kts | 353° |
| 2026-04-21 17:30 | 39.15380 | -120.18093 | 31973 ft | 500 kts | 353° |
| 2026-04-21 17:30 | 39.22312 | -120.18738 | 31970 ft | 500 kts | 353° |
| 2026-04-21 17:31 | 39.29254 | -120.19384 | 31982 ft | 501 kts | 353° |
| 2026-04-21 17:31 | 39.35029 | -120.19923 | 31980 ft | 502 kts | 354° |
| 2026-04-21 17:32 | 39.42215 | -120.20597 | 31980 ft | 502 kts | 354° |
| 2026-04-21 17:32 | 39.49194 | -120.21251 | 31976 ft | 504 kts | 354° |
| 2026-04-21 17:33 | 39.56197 | -120.21909 | 31963 ft | 504 kts | 354° |
| 2026-04-21 17:33 | 39.63200 | -120.22567 | 31961 ft | 504 kts | 354° |
| 2026-04-21 17:34 | 39.69021 | -120.23116 | 31971 ft | 503 kts | 354° |
| 2026-04-21 17:34 | 39.76011 | -120.23777 | 31956 ft | 503 kts | 354° |
| 2026-04-21 17:35 | 39.83001 | -120.24438 | 31953 ft | 503 kts | 354° |
| 2026-04-21 17:35 | 39.89982 | -120.25101 | 31951 ft | 503 kts | 354° |
| 2026-04-21 17:36 | 39.96965 | -120.25764 | 31947 ft | 503 kts | 354° |
| 2026-04-21 17:36 | 40.03946 | -120.26429 | 31956 ft | 502 kts | 354° |
| 2026-04-21 17:37 | 40.10893 | -120.27090 | 31952 ft | 502 kts | 354° |
| 2026-04-21 17:37 | 40.17856 | -120.27757 | 31961 ft | 501 kts | 354° |
| 2026-04-21 17:38 | 40.24798 | -120.28423 | 31958 ft | 501 kts | 354° |
| 2026-04-21 17:38 | 40.31741 | -120.29090 | 31965 ft | 501 kts | 354° |
| 2026-04-21 17:39 | 40.38702 | -120.29760 | 31969 ft | 501 kts | 354° |
| 2026-04-21 17:39 | 40.45653 | -120.30428 | 31961 ft | 502 kts | 354° |
| 2026-04-21 17:40 | 40.52634 | -120.31105 | 31959 ft | 503 kts | 354° |
| 2026-04-21 17:40 | 40.59634 | -120.31782 | 31965 ft | 503 kts | 354° |
| 2026-04-21 17:41 | 40.66611 | -120.32461 | 31952 ft | 504 kts | 354° |
| 2026-04-21 17:41 | 40.73597 | -120.33139 | 31954 ft | 504 kts | 354° |
| 2026-04-21 17:42 | 40.80598 | -120.33821 | 31955 ft | 505 kts | 354° |
| 2026-04-21 17:42 | 40.87619 | -120.34506 | 31954 ft | 505 kts | 355° |
| 2026-04-21 17:43 | 40.94607 | -120.35189 | 31953 ft | 506 kts | 355° |
| 2026-04-21 17:43 | 41.01646 | -120.35879 | 31946 ft | 507 kts | 355° |
| 2026-04-21 17:44 | 41.08687 | -120.36571 | 31939 ft | 506 kts | 355° |
| 2026-04-21 17:44 | 41.15711 | -120.37263 | 31940 ft | 505 kts | 355° |
| 2026-04-21 17:45 | 41.22703 | -120.37953 | 31939 ft | 504 kts | 355° |
| 2026-04-21 17:45 | 41.29683 | -120.38644 | 31941 ft | 504 kts | 355° |
| 2026-04-21 17:46 | 41.36657 | -120.39338 | 31931 ft | 503 kts | 355° |
| 2026-04-21 17:46 | 41.43660 | -120.40032 | 31936 ft | 502 kts | 355° |
| 2026-04-21 17:47 | 41.50592 | -120.40722 | 31940 ft | 502 kts | 355° |
| 2026-04-21 17:47 | 41.57553 | -120.41417 | 31938 ft | 502 kts | 355° |
| 2026-04-21 17:48 | 41.64520 | -120.42113 | 31936 ft | 502 kts | 355° |
| 2026-04-21 17:48 | 41.71485 | -120.42811 | 31940 ft | 502 kts | 355° |
| 2026-04-21 17:49 | 41.78470 | -120.43512 | 31934 ft | 502 kts | 355° |
| 2026-04-21 17:49 | 41.85434 | -120.44211 | 31935 ft | 503 kts | 355° |
| 2026-04-21 17:50 | 41.92434 | -120.44917 | 31936 ft | 502 kts | 355° |
| 2026-04-21 17:50 | 41.99388 | -120.45620 | 31931 ft | 503 kts | 355° |
| 2026-04-21 17:51 | 42.06384 | -120.46328 | 31938 ft | 503 kts | 355° |
| 2026-04-21 17:51 | 42.13365 | -120.47037 | 31938 ft | 503 kts | 355° |
| 2026-04-21 17:52 | 42.20310 | -120.47745 | 31934 ft | 503 kts | 355° |
| 2026-04-21 17:52 | 42.27307 | -120.48457 | 31942 ft | 503 kts | 355° |
| 2026-04-21 17:53 | 42.34294 | -120.49173 | 31933 ft | 504 kts | 355° |
| 2026-04-21 17:53 | 42.41274 | -120.49888 | 31937 ft | 504 kts | 355° |
| 2026-04-21 17:54 | 42.48239 | -120.50643 | 31947 ft | 502 kts | 351° |
| 2026-04-21 17:54 | 42.51602 | -120.51817 | 31920 ft | 497 kts | 333° |
| 2026-04-21 17:54 | 42.54765 | -120.53716 | 31956 ft | 494 kts | 331° |
| 2026-04-21 17:55 | 42.61015 | -120.57663 | 31925 ft | 495 kts | 331° |
| 2026-04-21 17:55 | 42.67260 | -120.61564 | 31926 ft | 496 kts | 332° |
| 2026-04-21 17:56 | 42.73549 | -120.65413 | 31921 ft | 496 kts | 332° |
| 2026-04-21 17:56 | 42.79828 | -120.69231 | 31926 ft | 497 kts | 332° |
| 2026-04-21 17:57 | 42.86147 | -120.73079 | 31925 ft | 497 kts | 332° |
| 2026-04-21 17:57 | 42.92475 | -120.76944 | 31931 ft | 498 kts | 332° |
| 2026-04-21 17:58 | 42.98789 | -120.80813 | 31930 ft | 499 kts | 332° |
| 2026-04-21 17:58 | 43.05143 | -120.84716 | 31927 ft | 499 kts | 332° |
| 2026-04-21 17:59 | 43.11469 | -120.88609 | 31926 ft | 499 kts | 332° |
| 2026-04-21 17:59 | 43.17821 | -120.92531 | 31934 ft | 499 kts | 332° |
| 2026-04-21 18:00 | 43.24138 | -120.96439 | 31931 ft | 500 kts | 332° |
| 2026-04-21 18:00 | 43.30497 | -121.00382 | 31931 ft | 499 kts | 332° |
| 2026-04-21 18:01 | 43.36827 | -121.04313 | 31924 ft | 499 kts | 332° |
| 2026-04-21 18:01 | 43.43118 | -121.08229 | 31925 ft | 498 kts | 332° |
| 2026-04-21 18:02 | 43.49417 | -121.12163 | 31929 ft | 498 kts | 332° |
| 2026-04-21 18:02 | 43.55759 | -121.16131 | 31921 ft | 498 kts | 332° |
| 2026-04-21 18:03 | 43.62066 | -121.20088 | 31934 ft | 499 kts | 332° |
| 2026-04-21 18:03 | 43.68372 | -121.24051 | 31934 ft | 499 kts | 332° |
| 2026-04-21 18:04 | 43.74676 | -121.28022 | 31937 ft | 498 kts | 332° |
| 2026-04-21 18:04 | 43.80962 | -121.31990 | 31936 ft | 498 kts | 332° |
| 2026-04-21 18:05 | 43.87297 | -121.36000 | 31930 ft | 498 kts | 332° |
| 2026-04-21 18:05 | 43.93578 | -121.39985 | 31945 ft | 499 kts | 332° |
| 2026-04-21 18:06 | 43.99922 | -121.44018 | 31934 ft | 500 kts | 332° |
| 2026-04-21 18:06 | 44.06219 | -121.48039 | 31937 ft | 501 kts | 332° |
| 2026-04-21 18:07 | 44.12591 | -121.52108 | 31921 ft | 502 kts | 332° |
| 2026-04-21 18:07 | 44.18916 | -121.56158 | 31911 ft | 502 kts | 332° |
| 2026-04-21 18:08 | 44.25261 | -121.60225 | 31913 ft | 501 kts | 332° |
| 2026-04-21 18:08 | 44.31580 | -121.64291 | 31924 ft | 501 kts | 332° |
| 2026-04-21 18:09 | 44.37905 | -121.68375 | 31923 ft | 501 kts | 332° |
| 2026-04-21 18:09 | 44.44264 | -121.72487 | 31900 ft | 501 kts | 331° |
| 2026-04-21 18:10 | 44.50569 | -121.76573 | 31908 ft | 500 kts | 331° |
| 2026-04-21 18:10 | 44.56878 | -121.80677 | 31902 ft | 499 kts | 331° |
| 2026-04-21 18:11 | 44.63169 | -121.84776 | 31889 ft | 499 kts | 332° |
| 2026-04-21 18:11 | 44.69442 | -121.88865 | 31898 ft | 498 kts | 332° |
| 2026-04-21 18:12 | 44.75756 | -121.92997 | 31904 ft | 500 kts | 332° |
| 2026-04-21 18:12 | 44.82066 | -121.97134 | 31903 ft | 501 kts | 332° |
| 2026-04-21 18:13 | 44.88398 | -122.01295 | 31922 ft | 500 kts | 332° |
| 2026-04-21 18:13 | 44.94725 | -122.05471 | 31912 ft | 502 kts | 332° |
| 2026-04-21 18:14 | 45.04196 | -122.11739 | 31903 ft | 501 kts | 332° |
| 2026-04-21 18:15 | 45.10488 | -122.15908 | 31859 ft | 499 kts | 332° |
| 2026-04-21 18:15 | 45.15715 | -122.19383 | 31908 ft | 498 kts | 332° |
| 2026-04-21 18:16 | 45.23030 | -122.24258 | 31932 ft | 497 kts | 332° |
| 2026-04-21 18:16 | 45.28237 | -122.27738 | 31929 ft | 496 kts | 332° |
| 2026-04-21 18:17 | 45.34477 | -122.31912 | 31930 ft | 497 kts | 332° |
| 2026-04-21 18:17 | 45.40744 | -122.36118 | 31941 ft | 497 kts | 331° |
| 2026-04-21 18:18 | 45.46986 | -122.40323 | 31951 ft | 497 kts | 331° |
| 2026-04-21 18:18 | 45.53216 | -122.44521 | 31937 ft | 497 kts | 331° |
| 2026-04-21 18:19 | 45.59490 | -122.48765 | 31954 ft | 497 kts | 331° |
| 2026-04-21 18:19 | 45.65722 | -122.52991 | 31944 ft | 498 kts | 331° |
| 2026-04-21 18:19 | 45.68861 | -122.55124 | 31765 ft | 500 kts | 331° |
| 2026-04-21 18:20 | 45.71983 | -122.57248 | 31273 ft | 500 kts | 331° |
| 2026-04-21 18:20 | 45.75172 | -122.59267 | 30731 ft | 502 kts | 339° |
| 2026-04-21 18:20 | 45.78592 | -122.60381 | 30192 ft | 503 kts | 350° |
| 2026-04-21 18:20 | 45.82014 | -122.61162 | 29631 ft | 503 kts | 351° |
| 2026-04-21 18:21 | 45.85499 | -122.61922 | 29025 ft | 504 kts | 351° |
| 2026-04-21 18:21 | 45.88941 | -122.62694 | 28397 ft | 504 kts | 350° |
| 2026-04-21 18:21 | 45.92416 | -122.63508 | 27766 ft | 505 kts | 350° |
| 2026-04-21 18:21 | 45.95870 | -122.64353 | 27302 ft | 500 kts | 349° |
| 2026-04-21 18:22 | 45.99257 | -122.65198 | 26802 ft | 496 kts | 349° |
| 2026-04-21 18:22 | 46.02651 | -122.66051 | 26335 ft | 490 kts | 349° |
| 2026-04-21 18:22 | 46.06018 | -122.66895 | 25874 ft | 485 kts | 349° |
| 2026-04-21 18:22 | 46.09294 | -122.67713 | 25406 ft | 480 kts | 349° |
| 2026-04-21 18:23 | 46.12580 | -122.68459 | 25111 ft | 470 kts | 352° |
| 2026-04-21 18:23 | 46.15793 | -122.69086 | 24844 ft | 459 kts | 352° |
| 2026-04-21 18:23 | 46.18899 | -122.69663 | 24513 ft | 452 kts | 352° |
| 2026-04-21 18:23 | 46.22021 | -122.70249 | 24084 ft | 448 kts | 352° |
| 2026-04-21 18:24 | 46.25081 | -122.70840 | 23631 ft | 444 kts | 352° |
| 2026-04-21 18:24 | 46.28159 | -122.71449 | 23172 ft | 440 kts | 352° |
| 2026-04-21 18:24 | 46.31157 | -122.72046 | 22723 ft | 436 kts | 352° |
| 2026-04-21 18:24 | 46.34174 | -122.72493 | 22371 ft | 430 kts | 358° |
| 2026-04-21 18:25 | 46.37125 | -122.72652 | 21962 ft | 425 kts | 0° |
| 2026-04-21 18:25 | 46.40062 | -122.72699 | 21537 ft | 422 kts | 1° |
| 2026-04-21 18:25 | 46.42997 | -122.72726 | 21094 ft | 419 kts | 1° |
| 2026-04-21 18:25 | 46.45887 | -122.72771 | 20643 ft | 416 kts | 1° |
| 2026-04-21 18:26 | 46.48791 | -122.72840 | 20206 ft | 414 kts | 1° |
| 2026-04-21 18:26 | 46.51648 | -122.72926 | 19752 ft | 412 kts | 0° |
| 2026-04-21 18:26 | 46.54517 | -122.73026 | 19314 ft | 410 kts | 0° |
| 2026-04-21 18:26 | 46.57384 | -122.73131 | 18868 ft | 408 kts | 0° |
| 2026-04-21 18:27 | 46.60192 | -122.73234 | 18428 ft | 406 kts | 1° |
| 2026-04-21 18:27 | 46.63029 | -122.73338 | 17978 ft | 404 kts | 1° |
| 2026-04-21 18:27 | 46.65805 | -122.73439 | 17542 ft | 401 kts | 1° |
| 2026-04-21 18:27 | 46.68602 | -122.73539 | 17101 ft | 399 kts | 1° |
| 2026-04-21 18:28 | 46.71352 | -122.73639 | 16671 ft | 396 kts | 1° |
| 2026-04-21 18:28 | 46.74082 | -122.73737 | 16257 ft | 393 kts | 1° |
| 2026-04-21 18:28 | 46.76791 | -122.73708 | 16052 ft | 381 kts | 11° |
| 2026-04-21 18:28 | 46.79290 | -122.72650 | 15775 ft | 366 kts | 31° |
| 2026-04-21 18:29 | 46.81360 | -122.70661 | 15425 ft | 355 kts | 44° |
| 2026-04-21 18:29 | 46.83268 | -122.68364 | 15048 ft | 351 kts | 45° |
| 2026-04-21 18:29 | 46.85138 | -122.66081 | 14949 ft | 351 kts | 45° |
| 2026-04-21 18:29 | 46.87036 | -122.63865 | 14902 ft | 345 kts | 43° |
| 2026-04-21 18:30 | 46.88879 | -122.61775 | 14889 ft | 332 kts | 43° |
| 2026-04-21 18:30 | 46.90682 | -122.59736 | 14886 ft | 318 kts | 43° |
| 2026-04-21 18:30 | 46.92384 | -122.57805 | 14868 ft | 306 kts | 44° |
| 2026-04-21 18:30 | 46.94092 | -122.56070 | 14873 ft | 298 kts | 30° |
| 2026-04-21 18:31 | 46.96039 | -122.55087 | 14890 ft | 290 kts | 21° |
| 2026-04-21 18:31 | 46.97965 | -122.54295 | 14865 ft | 282 kts | 20° |
| 2026-04-21 18:31 | 46.99827 | -122.53529 | 14883 ft | 283 kts | 21° |
| 2026-04-21 18:31 | 47.01744 | -122.52715 | 14898 ft | 291 kts | 21° |
| 2026-04-21 18:32 | 47.03706 | -122.51868 | 14893 ft | 293 kts | 21° |
| 2026-04-21 18:32 | 47.05646 | -122.51024 | 14872 ft | 290 kts | 21° |
| 2026-04-21 18:32 | 47.07586 | -122.50180 | 14869 ft | 288 kts | 21° |
| 2026-04-21 18:32 | 47.09535 | -122.49596 | 14881 ft | 289 kts | 11° |
| 2026-04-21 18:33 | 47.11547 | -122.49269 | 14893 ft | 291 kts | 9° |
| 2026-04-21 18:33 | 47.13556 | -122.48960 | 14896 ft | 295 kts | 10° |
| 2026-04-21 18:33 | 47.15605 | -122.48617 | 14888 ft | 295 kts | 11° |
| 2026-04-21 18:33 | 47.17638 | -122.48258 | 14864 ft | 294 kts | 11° |
| 2026-04-21 18:34 | 47.19670 | -122.47898 | 14862 ft | 293 kts | 10° |
| 2026-04-21 18:34 | 47.21705 | -122.47580 | 14884 ft | 292 kts | 9° |
| 2026-04-21 18:34 | 47.23730 | -122.47278 | 14884 ft | 292 kts | 9° |
| 2026-04-21 18:34 | 47.25738 | -122.46978 | 14891 ft | 291 kts | 9° |
| 2026-04-21 18:35 | 47.27081 | -122.46776 | 14891 ft | 291 kts | 9° |
| 2026-04-21 18:35 | 47.29776 | -122.46367 | 14894 ft | 291 kts | 9° |
| 2026-04-21 18:35 | 47.31781 | -122.46060 | 14901 ft | 291 kts | 9° |
| 2026-04-21 18:35 | 47.33819 | -122.45747 | 14902 ft | 292 kts | 9° |
| 2026-04-21 18:36 | 47.35831 | -122.45475 | 14907 ft | 294 kts | 6° |
| 2026-04-21 18:36 | 47.37890 | -122.45437 | 14898 ft | 295 kts | 2° |
| 2026-04-21 18:36 | 47.39933 | -122.45469 | 14903 ft | 296 kts | 2° |
| 2026-04-21 18:36 | 47.41988 | -122.45506 | 14904 ft | 297 kts | 2° |
| 2026-04-21 18:37 | 47.44061 | -122.45526 | 14905 ft | 298 kts | 2° |
| 2026-04-21 18:37 | 47.46141 | -122.45534 | 14890 ft | 296 kts | 3° |
| 2026-04-21 18:37 | 47.48197 | -122.45537 | 14768 ft | 292 kts | 3° |
| 2026-04-21 18:37 | 47.50203 | -122.45538 | 14494 ft | 291 kts | 3° |
| 2026-04-21 18:38 | 47.52241 | -122.45516 | 14192 ft | 291 kts | 5° |
| 2026-04-21 18:38 | 47.54242 | -122.45422 | 13943 ft | 288 kts | 6° |
| 2026-04-21 18:38 | 47.56246 | -122.45291 | 13641 ft | 286 kts | 6° |
| 2026-04-21 18:38 | 47.58242 | -122.45147 | 13323 ft | 284 kts | 7° |
| 2026-04-21 18:39 | 47.60204 | -122.44988 | 13007 ft | 283 kts | 7° |
| 2026-04-21 18:39 | 47.62146 | -122.44829 | 12719 ft | 280 kts | 7° |
| 2026-04-21 18:39 | 47.64110 | -122.44663 | 12409 ft | 279 kts | 7° |
| 2026-04-21 18:39 | 47.66028 | -122.44501 | 12103 ft | 277 kts | 7° |
| 2026-04-21 18:40 | 47.67937 | -122.44337 | 11816 ft | 275 kts | 7° |
| 2026-04-21 18:40 | 47.69853 | -122.44186 | 11516 ft | 273 kts | 6° |
| 2026-04-21 18:40 | 47.71116 | -122.44117 | 11328 ft | 271 kts | 5° |
| 2026-04-21 18:40 | 47.73604 | -122.44070 | 10975 ft | 267 kts | 3° |
| 2026-04-21 18:41 | 47.75426 | -122.43869 | 10659 ft | 261 kts | 22° |
| 2026-04-21 18:41 | 47.76868 | -122.42391 | 10316 ft | 250 kts | 57° |
| 2026-04-21 18:41 | 47.77585 | -122.40089 | 9962 ft | 243 kts | 81° |
| 2026-04-21 18:41 | 47.77605 | -122.37621 | 9569 ft | 242 kts | 104° |
| 2026-04-21 18:42 | 47.76917 | -122.35340 | 9165 ft | 242 kts | 129° |
| 2026-04-21 18:42 | 47.75641 | -122.33716 | 8738 ft | 245 kts | 153° |
| 2026-04-21 18:42 | 47.74025 | -122.32971 | 8382 ft | 244 kts | 172° |
| 2026-04-21 18:42 | 47.72354 | -122.32746 | 8098 ft | 242 kts | 176° |
| 2026-04-21 18:43 | 47.70679 | -122.32608 | 7781 ft | 241 kts | 177° |
| 2026-04-21 18:43 | 47.69014 | -122.32473 | 7472 ft | 240 kts | 176° |
| 2026-04-21 18:43 | 47.67342 | -122.32324 | 7162 ft | 239 kts | 176° |
| 2026-04-21 18:43 | 47.65689 | -122.32165 | 6871 ft | 237 kts | 176° |
| 2026-04-21 18:44 | 47.64097 | -122.31604 | 6539 ft | 237 kts | 150° |
| 2026-04-21 18:44 | 47.62938 | -122.29935 | 6191 ft | 236 kts | 118° |
| 2026-04-21 18:44 | 47.62548 | -122.27589 | 5846 ft | 236 kts | 86° |
| 2026-04-21 18:44 | 47.63044 | -122.25330 | 5498 ft | 235 kts | 54° |
| 2026-04-21 18:45 | 47.64290 | -122.23785 | 5158 ft | 234 kts | 21° |
| 2026-04-21 18:45 | 47.65864 | -122.23465 | 4823 ft | 232 kts | 349° |
| 2026-04-21 18:45 | 47.67317 | -122.24445 | 4470 ft | 230 kts | 316° |
| 2026-04-21 18:45 | 47.68163 | -122.26380 | 4149 ft | 229 kts | 284° |
| 2026-04-21 18:46 | 47.68172 | -122.28695 | 3829 ft | 226 kts | 251° |
| 2026-04-21 18:46 | 47.67336 | -122.30641 | 3462 ft | 225 kts | 220° |
| 2026-04-21 18:46 | 47.65939 | -122.31495 | 3248 ft | 218 kts | 184° |
| 2026-04-21 18:46 | 47.64479 | -122.31593 | 3231 ft | 202 kts | 182° |
| 2026-04-21 18:47 | 47.63112 | -122.31637 | 3207 ft | 194 kts | 181° |
| 2026-04-21 18:47 | 47.61774 | -122.31652 | 3215 ft | 193 kts | 180° |
| 2026-04-21 18:47 | 47.60416 | -122.31664 | 3122 ft | 194 kts | 180° |
| 2026-04-21 18:47 | 47.59060 | -122.31675 | 2887 ft | 197 kts | 180° |
| 2026-04-21 18:48 | 47.57692 | -122.31687 | 2630 ft | 194 kts | 180° |
| 2026-04-21 18:48 | 47.56362 | -122.31700 | 2385 ft | 189 kts | 181° |
| 2026-04-21 18:48 | 47.55052 | -122.31708 | 2127 ft | 184 kts | 180° |
| 2026-04-21 18:48 | 47.53817 | -122.31720 | 1891 ft | 174 kts | 180° |
| 2026-04-21 18:49 | 47.52651 | -122.31732 | 1675 ft | 160 kts | 180° |
| 2026-04-21 18:49 | 47.51581 | -122.31739 | 1467 ft | 151 kts | 180° |
| 2026-04-21 18:49 | 47.50886 | -122.31746 | 1344 ft | 148 kts | 180° |
| 2026-04-21 18:49 | 47.49493 | -122.31757 | 1079 ft | 152 kts | 180° |
| 2026-04-21 18:50 | 47.48438 | -122.31769 | 875 ft | 152 kts | 181° |
| 2026-04-21 18:50 | 47.47372 | -122.31777 | 659 ft | 152 kts | 181° |
| 2026-04-21 18:50 | 47.46322 | -122.31794 | 408 ft | 147 kts | 181° |
| 2026-04-21 18:50 | 47.45384 | -122.31800 | 383 ft | 119 kts | 180° |
| 2026-04-21 18:51 | 47.44732 | -122.31795 | 383 ft | 52 kts | 173° |
| 2026-04-21 18:51 | 47.44479 | -122.31650 | 383 ft | 21 kts | 150° |
| 2026-04-21 18:51 | 47.44353 | -122.31543 | 383 ft | 21 kts | 150° |
| 2026-04-21 18:51 | 47.44254 | -122.31390 | 383 ft | 21 kts | 119° |
| 2026-04-21 18:52 | 47.44201 | -122.31196 | 383 ft | 20 kts | 118° |
| 2026-04-21 18:52 | 47.44109 | -122.31053 | 383 ft | 19 kts | 146° |
| 2026-04-21 18:52 | 47.43994 | -122.30957 | 383 ft | 19 kts | 150° |
| 2026-04-21 18:52 | 47.43908 | -122.30825 | 383 ft | 18 kts | 104° |
| 2026-04-21 18:53 | 47.43904 | -122.30694 | 383 ft | 9 kts | 84° |
| 2026-04-21 18:53 | 47.43944 | -122.30635 | 383 ft | 9 kts | 10° |
| 2026-04-21 18:53 | 47.44003 | -122.30633 | 383 ft | 8 kts | 1° |
| 2026-04-21 18:53 | 47.44061 | -122.30631 | 383 ft | 8 kts | 1° |
| 2026-04-21 18:54 | 47.44118 | -122.30630 | 383 ft | 8 kts | 1° |
| 2026-04-21 18:54 | 47.44164 | -122.30599 | 383 ft | 8 kts | 60° |
| 2026-04-21 18:54 | 47.44183 | -122.30524 | 383 ft | 8 kts | 78° |
| 2026-04-21 18:54 | 47.44183 | -122.30455 | 383 ft | 5 kts | 91° |
| 2026-04-21 18:55 | 47.44183 | -122.30450 | 383 ft | 0 kts | 91° |